Terminal Aerodrome Forecast
Issued by NWS North Platte, NE

Home | Current Version | Previous Version | Graphics & Text | Print | Product List | Glossary On
Versions: 1 2 3 4 5 6 7 8 9 10 11 12 13 14 15 16
000
FTUS43 KLBF 171200 AAA
TAFVTN
TAF AMD
KVTN 171243Z 1713/1812 VRB03KT P6SM SCT090
     FM171400 14010KT P6SM SCT090 PROB30 1722/1803 5SM TSRA BKN070CB
     FM180300 23008KT P6SM SCT200=

USA.gov is the U.S. government's official web portal to all federal, state and local government web resources and services.